createdAt,value
2019-02-24T00:00:46.590Z,101762.89
2019-02-24T00:03:16.118Z,101758.63
2019-02-24T00:05:45.944Z,101754.79
2019-02-24T00:08:15.710Z,101760.72
2019-02-24T00:10:45.481Z,101746.78
2019-02-24T00:13:15.405Z,101740.91
2019-02-24T00:15:45.013Z,101728.55
2019-02-24T00:18:15.191Z,101726.73
2019-02-24T00:20:44.761Z,101719.63
2019-02-24T00:23:14.123Z,101715.14
2019-02-24T00:25:43.633Z,101721.83
2019-02-24T00:28:13.005Z,101715.59
2019-02-24T00:30:42.386Z,101724.77
2019-02-24T00:33:11.736Z,101721.24
2019-02-24T00:35:41.163Z,101714.67
2019-02-24T00:38:10.621Z,101711.59
2019-02-24T00:40:40.034Z,101717.92
2019-02-24T00:43:09.432Z,101700.30
2019-02-24T00:45:39.985Z,101694.19
2019-02-24T00:48:09.353Z,101706.11
2019-02-24T00:50:38.861Z,101700.14
2019-02-24T00:53:08.654Z,101682.03
2019-02-24T00:55:38.247Z,101678.68
2019-02-24T00:58:15.942Z,101679.59
2019-02-24T01:00:40.120Z,101673.30
2019-02-24T01:03:09.688Z,101662.88
2019-02-24T01:05:39.445Z,101658.19
2019-02-24T01:08:08.948Z,101650.20
2019-02-24T01:10:38.325Z,101638.39
2019-02-24T01:13:07.714Z,101641.39
2019-02-24T01:15:37.225Z,101644.30
2019-02-24T01:18:06.658Z,101639.41
2019-02-24T01:20:36.082Z,101637.09
2019-02-24T01:23:05.868Z,101613.47
2019-02-24T01:25:35.350Z,101600.02
2019-02-24T01:28:05.176Z,101595.08
2019-02-24T01:30:35.084Z,101591.20
2019-02-24T01:33:04.650Z,101588.11
2019-02-24T01:35:34.063Z,101581.55
2019-02-24T01:38:03.457Z,101586.10
2019-02-24T01:40:33.555Z,101586.64
2019-02-24T01:43:02.872Z,101584.12
2019-02-24T01:45:32.690Z,101589.22
2019-02-24T01:48:02.180Z,101587.19
2019-02-24T01:50:31.542Z,101572.96
2019-02-24T01:53:01.499Z,101568.50
2019-02-24T01:55:33.496Z,101572.54
2019-02-24T01:58:03.244Z,101571.17
2019-02-24T02:00:33.099Z,101552.67
2019-02-24T02:03:02.556Z,101535.61
2019-02-24T02:05:32.542Z,101538.83
2019-02-24T02:08:02.660Z,101544.64
2019-02-24T02:10:32.066Z,101543.02
2019-02-24T02:13:01.762Z,101532.57
2019-02-24T02:15:31.476Z,101529.56
2019-02-24T02:18:01.304Z,101533.64
2019-02-24T02:20:30.999Z,101517.36
2019-02-24T02:23:00.842Z,101514.02
2019-02-24T02:25:30.260Z,101521.94
2019-02-24T02:28:00.122Z,101514.58
2019-02-24T02:30:29.541Z,101511.91
2019-02-24T02:32:59.384Z,101512.41
2019-02-24T02:35:28.755Z,101509.28
2019-02-24T02:37:58.214Z,101513.56
2019-02-24T02:40:27.734Z,101507.75
2019-02-24T02:42:57.469Z,101497.47
2019-02-24T02:45:27.004Z,101491.83
2019-02-24T02:47:56.387Z,101504.63
2019-02-24T02:50:26.126Z,101498.44
2019-02-24T02:52:55.656Z,101502.51
2019-02-24T02:55:25.388Z,101491.41
2019-02-24T02:57:55.234Z,101489.19
2019-02-24T03:00:32.101Z,101488.33
2019-02-24T03:03:01.725Z,101490.04
2019-02-24T03:05:31.252Z,101482.17
2019-02-24T03:08:19.027Z,101494.19
2019-02-24T03:10:50.901Z,101490.97
2019-02-24T03:13:20.433Z,101492.04
2019-02-24T03:15:49.841Z,101479.14
2019-02-24T03:18:20.247Z,101477.56
2019-02-24T03:20:50.181Z,101473.02
2019-02-24T03:23:20.001Z,101469.89
2019-02-24T03:25:50.598Z,101472.09
2019-02-24T03:28:20.340Z,101457.69
2019-02-24T03:30:50.470Z,101453.97
2019-02-24T03:33:20.468Z,101452.82
2019-02-24T03:35:50.436Z,101442.44
2019-02-24T03:38:20.390Z,101440.83
2019-02-24T03:40:50.078Z,101430.34
2019-02-24T03:43:20.052Z,101427.86
2019-02-24T03:45:49.888Z,101419.00
2019-02-24T03:48:19.257Z,101421.70
2019-02-24T03:50:49.354Z,101420.00
2019-02-24T03:53:18.986Z,101412.70
2019-02-24T03:55:48.765Z,101403.64
2019-02-24T03:58:18.541Z,101404.66
2019-02-24T04:00:48.281Z,101397.95
2019-02-24T04:03:18.146Z,101396.46
2019-02-24T04:05:47.650Z,101383.69
2019-02-24T04:08:17.102Z,101377.55
2019-02-24T04:10:47.264Z,101371.75
2019-02-24T04:13:17.218Z,101366.56
2019-02-24T04:15:47.557Z,101364.08
2019-02-24T04:18:16.984Z,101358.03
2019-02-24T04:20:46.734Z,101346.91
2019-02-24T04:23:16.565Z,101349.02
2019-02-24T04:25:45.958Z,101345.43
2019-02-24T04:28:15.712Z,101337.97
2019-02-24T04:30:45.445Z,101336.34
2019-02-24T04:33:14.859Z,101330.56
2019-02-24T04:35:44.275Z,101332.41
2019-02-24T04:38:16.028Z,101324.72
2019-02-24T04:40:46.815Z,101321.75
2019-02-24T04:43:16.212Z,101317.61
2019-02-24T04:45:45.611Z,101316.70
2019-02-24T04:48:15.200Z,101311.92
2019-02-24T04:50:44.562Z,101311.92
2019-02-24T04:53:14.142Z,101309.75
2019-02-24T04:55:44.561Z,101313.62
2019-02-24T04:58:14.620Z,101305.11
2019-02-24T05:00:45.010Z,101309.09
2019-02-24T05:03:15.107Z,101306.58
2019-02-24T05:05:44.552Z,101302.95
2019-02-24T05:08:13.925Z,101307.94
2019-02-24T05:10:43.629Z,101311.98
2019-02-24T05:13:13.364Z,101305.63
2019-02-24T05:15:43.112Z,101294.73
2019-02-24T05:18:12.766Z,101288.24
2019-02-24T05:20:42.823Z,101279.92
2019-02-24T05:23:12.607Z,101278.56
2019-02-24T05:25:42.184Z,101281.64
2019-02-24T05:28:12.347Z,101166.64
2019-02-24T05:30:42.232Z,101278.36
2019-02-24T05:33:11.963Z,101277.21
2019-02-24T05:35:41.364Z,101276.28
2019-02-24T05:38:11.015Z,101280.61
2019-02-24T05:40:40.439Z,101286.25
2019-02-24T05:43:10.590Z,101290.98
2019-02-24T05:45:40.061Z,101286.30
2019-02-24T05:48:09.711Z,101289.11
2019-02-24T05:50:39.575Z,101273.19
2019-02-24T05:53:08.968Z,101278.81
2019-02-24T05:55:38.317Z,101267.91
2019-02-24T05:58:07.737Z,101256.69
2019-02-24T06:00:37.880Z,101255.16
2019-02-24T06:03:07.307Z,101245.83
2019-02-24T06:05:36.688Z,101249.19
2019-02-24T06:08:06.378Z,101249.99
2019-02-24T06:10:36.636Z,101245.30
2019-02-24T06:13:06.274Z,101233.31
2019-02-24T06:15:36.055Z,101224.79
2019-02-24T06:18:05.898Z,101230.88
2019-02-24T06:20:35.279Z,101229.48
2019-02-24T06:23:04.707Z,101221.09
2019-02-24T06:25:34.509Z,101206.35
2019-02-24T06:28:04.082Z,101213.07
2019-02-24T06:30:33.857Z,101207.22
2019-02-24T06:33:03.312Z,101196.30
2019-02-24T06:35:32.690Z,101190.98
2019-02-24T06:38:02.534Z,101187.94
2019-02-24T06:40:31.909Z,101181.43
2019-02-24T06:43:01.411Z,101180.23
2019-02-24T06:45:30.784Z,101173.45
2019-02-24T06:48:00.736Z,101162.98
2019-02-24T06:50:49.597Z,101147.83
2019-02-24T06:53:19.447Z,101144.22
2019-02-24T06:55:49.390Z,101143.80
2019-02-24T06:58:19.620Z,101140.88
2019-02-24T07:00:49.326Z,101139.59
2019-02-24T07:03:18.971Z,101138.00
2019-02-24T07:05:48.405Z,101134.11
2019-02-24T07:08:17.744Z,101129.41
2019-02-24T07:10:49.790Z,101125.35
2019-02-24T07:13:21.944Z,101128.55
2019-02-24T07:15:51.858Z,101122.43
2019-02-24T07:18:21.555Z,101126.70
2019-02-24T07:20:50.985Z,101124.20
2019-02-24T07:23:20.323Z,101124.66
2019-02-24T07:25:49.857Z,101127.38
2019-02-24T07:28:20.881Z,101139.70
2019-02-24T07:30:50.454Z,101142.08
2019-02-24T07:33:23.434Z,101151.40
2019-02-24T07:35:54.384Z,101138.70
2019-02-24T07:38:24.230Z,101146.31
2019-02-24T07:40:54.278Z,101136.77
2019-02-24T07:43:23.646Z,101129.17
2019-02-24T07:45:53.211Z,101124.12
2019-02-24T07:48:22.606Z,101120.58
2019-02-24T07:50:52.152Z,101121.22
2019-02-24T07:53:22.512Z,101122.37
2019-02-24T07:55:52.465Z,101125.64
2019-02-24T07:58:22.006Z,101127.24
2019-02-24T08:00:51.462Z,101129.41
2019-02-24T08:03:20.947Z,101118.81
2019-02-24T08:05:51.069Z,101111.77
2019-02-24T08:08:20.569Z,101110.84
2019-02-24T08:10:52.196Z,101119.84
2019-02-24T08:13:21.884Z,101115.05
2019-02-24T08:15:51.598Z,101118.89
2019-02-24T08:18:21.193Z,101120.77
2019-02-24T08:20:50.605Z,101122.09
2019-02-24T08:23:20.926Z,101129.20
2019-02-24T08:25:50.424Z,101136.03
2019-02-24T08:28:20.007Z,101130.20
2019-02-24T08:30:50.847Z,101127.57
2019-02-24T08:33:20.822Z,101122.09
2019-02-24T08:35:50.242Z,101124.95
2019-02-24T08:38:19.670Z,101116.39
2019-02-24T08:40:49.187Z,101122.25
2019-02-24T08:43:19.778Z,101118.41
2019-02-24T08:45:49.254Z,101122.75
2019-02-24T08:48:19.340Z,101119.88
2019-02-24T08:50:49.089Z,101112.13
2019-02-24T08:53:18.882Z,101103.42
2019-02-24T08:55:49.209Z,101093.98
2019-02-24T08:58:19.250Z,101083.92
2019-02-24T09:00:50.985Z,101076.11
2019-02-24T09:03:20.165Z,101066.16
2019-02-24T09:05:49.692Z,101048.22
2019-02-24T09:08:19.398Z,101029.81
2019-02-24T09:10:49.056Z,101025.41
2019-02-24T09:13:19.696Z,101020.55
2019-02-24T09:15:49.704Z,101036.52
2019-02-24T09:18:19.237Z,101023.45
2019-02-24T09:20:49.465Z,101017.34
2019-02-24T09:23:19.277Z,101038.38
2019-02-24T09:25:49.068Z,101046.34
2019-02-24T09:28:19.054Z,101058.66
2019-02-24T09:30:48.433Z,101057.10
2019-02-24T09:33:18.639Z,101063.67
2019-02-24T09:35:48.108Z,101053.77
2019-02-24T09:38:17.620Z,101043.87
2019-02-24T09:40:47.368Z,101030.09
2019-02-24T09:43:17.007Z,101036.72
2019-02-24T09:45:47.359Z,101032.63
2019-02-24T09:48:16.780Z,101033.75
2019-02-24T09:50:46.827Z,101030.77
2019-02-24T09:53:16.332Z,101027.08
2019-02-24T09:55:45.780Z,101035.67
2019-02-24T09:58:15.246Z,101033.31
2019-02-24T10:00:44.714Z,101027.56
2019-02-24T10:03:14.078Z,101026.17
2019-02-24T10:05:43.832Z,101009.03
2019-02-24T10:08:13.235Z,101018.98
2019-02-24T10:10:44.042Z,101007.72
2019-02-24T10:13:13.616Z,101002.50
2019-02-24T10:15:43.051Z,101000.98
2019-02-24T10:18:12.664Z,100998.20
2019-02-24T10:20:42.230Z,101007.57
2019-02-24T10:23:11.722Z,101007.57
2019-02-24T10:25:41.426Z,101008.23
2019-02-24T10:28:12.050Z,101004.82
2019-02-24T10:30:41.647Z,101007.80
2019-02-24T10:33:11.125Z,101009.53
2019-02-24T10:35:40.513Z,101001.52
2019-02-24T10:38:10.083Z,101009.30
2019-02-24T10:40:39.670Z,101012.66
2019-02-24T10:43:09.057Z,101019.08
2019-02-24T10:45:38.439Z,101018.39
2019-02-24T10:48:14.093Z,101017.84
2019-02-24T10:50:38.969Z,101014.56
2019-02-24T10:53:08.377Z,101020.64
2019-02-24T10:55:38.117Z,101010.55
2019-02-24T10:58:07.841Z,101007.06
2019-02-24T11:00:40.488Z,101009.03
2019-02-24T11:03:09.921Z,101003.19
2019-02-24T11:05:40.553Z,101001.29
2019-02-24T11:08:09.922Z,101001.67
2019-02-24T11:10:39.385Z,100982.67
2019-02-24T11:13:08.982Z,100984.07
2019-02-24T11:15:38.486Z,100989.42
2019-02-24T11:18:08.720Z,100985.77
2019-02-24T11:20:38.277Z,100974.55
2019-02-24T11:23:07.778Z,100962.84
2019-02-24T11:25:38.067Z,100942.81
2019-02-24T11:28:09.264Z,100928.08
2019-02-24T11:30:39.611Z,100899.47
2019-02-24T11:33:09.474Z,100923.56
2019-02-24T11:35:38.887Z,100910.98
2019-02-24T11:38:08.320Z,100911.16
2019-02-24T11:40:37.778Z,100900.64
2019-02-24T11:43:07.401Z,100895.83
2019-02-24T11:45:36.829Z,100908.59
2019-02-24T11:48:06.257Z,100890.13
2019-02-24T11:50:35.899Z,100902.42
2019-02-24T11:53:05.440Z,100907.18
2019-02-24T11:55:34.845Z,100923.98
2019-02-24T11:58:04.699Z,100918.00
2019-02-24T12:00:34.094Z,100922.49
2019-02-24T12:03:03.765Z,100919.17
2019-02-24T12:05:33.449Z,100922.17
2019-02-24T12:08:03.030Z,100918.64
2019-02-24T12:10:33.039Z,100917.36
2019-02-24T12:13:03.054Z,100931.80
2019-02-24T12:15:33.280Z,100922.52
2019-02-24T12:18:02.732Z,100916.47
2019-02-24T12:20:32.280Z,100899.14
2019-02-24T12:23:04.995Z,100903.42
2019-02-24T12:25:37.592Z,100911.27
2019-02-24T12:28:07.159Z,100905.27
2019-02-24T12:30:36.638Z,100919.59
2019-02-24T12:33:06.521Z,100916.04
2019-02-24T12:35:35.971Z,100904.58
2019-02-24T12:38:05.495Z,100920.11
2019-02-24T12:40:35.105Z,100926.56
2019-02-24T12:43:04.592Z,100928.88
2019-02-24T12:45:34.150Z,100908.66
2019-02-24T12:48:03.847Z,100912.61
2019-02-24T12:50:33.264Z,100907.67
2019-02-24T12:53:02.659Z,100908.67
2019-02-24T12:55:32.678Z,100927.65
2019-02-24T12:58:02.426Z,100925.83
2019-02-24T13:00:32.509Z,100934.80
2019-02-24T13:03:02.014Z,100915.27
2019-02-24T13:05:31.658Z,100927.65
2019-02-24T13:08:01.100Z,100931.05
2019-02-24T13:10:30.781Z,100931.43
2019-02-24T13:13:02.044Z,100935.23
2019-02-24T13:15:31.669Z,100931.85
2019-02-24T13:18:01.883Z,100923.70
2019-02-24T13:20:31.743Z,100932.83
2019-02-24T13:23:01.187Z,100937.66
2019-02-24T13:25:31.239Z,100935.95
2019-02-24T13:28:01.077Z,100926.22
2019-02-24T13:30:30.580Z,100911.70
2019-02-24T13:32:59.927Z,100924.76
2019-02-24T13:35:30.054Z,100919.75
2019-02-24T13:37:59.821Z,100922.88
2019-02-24T13:40:29.272Z,100920.88
2019-02-24T13:42:58.816Z,100925.77
2019-02-24T13:45:28.561Z,100932.89
2019-02-24T13:47:57.947Z,100920.34
2019-02-24T13:50:27.560Z,100913.95
2019-02-24T13:52:57.122Z,100914.66
2019-02-24T13:55:26.773Z,100909.78
2019-02-24T13:57:56.207Z,100896.52
2019-02-24T14:00:25.704Z,100898.77
2019-02-24T14:02:55.266Z,100880.78
2019-02-24T14:05:25.441Z,100885.84
2019-02-24T14:07:54.894Z,100884.69
2019-02-24T14:10:24.435Z,100878.97
2019-02-24T14:12:54.135Z,100880.28
2019-02-24T14:15:23.501Z,100861.22
2019-02-24T14:17:53.443Z,100863.45
2019-02-24T14:20:22.934Z,100858.83
2019-02-24T14:22:52.359Z,100858.91
2019-02-24T14:25:21.846Z,100858.98
2019-02-24T14:27:51.508Z,100855.66
2019-02-24T14:30:20.982Z,100858.09
2019-02-24T14:32:50.388Z,100863.05
2019-02-24T14:35:20.059Z,100851.84
2019-02-24T14:37:49.453Z,100852.49
2019-02-24T14:40:18.865Z,100844.64
2019-02-24T14:42:48.326Z,100849.05
2019-02-24T14:45:18.578Z,100854.45
2019-02-24T14:47:48.036Z,100857.16
2019-02-24T14:50:17.705Z,100856.92
2019-02-24T14:52:47.330Z,100855.36
2019-02-24T14:55:17.265Z,100861.70
2019-02-24T14:57:46.664Z,100859.25
2019-02-24T15:00:16.859Z,100858.09
2019-02-24T15:02:46.677Z,100853.48
2019-02-24T15:05:16.920Z,100836.17
2019-02-24T15:07:46.462Z,100845.29
2019-02-24T15:10:16.381Z,100854.17
2019-02-24T15:12:45.917Z,100849.69
2019-02-24T15:15:17.094Z,100850.41
2019-02-24T15:17:47.097Z,100844.63
2019-02-24T15:20:17.945Z,100848.71
2019-02-24T15:22:47.369Z,100856.53
2019-02-24T15:25:17.112Z,100840.92
2019-02-24T15:27:47.346Z,100844.80
2019-02-24T15:30:19.935Z,100830.55
2019-02-24T15:32:51.956Z,100825.44
2019-02-24T15:35:21.291Z,100820.45
2019-02-24T15:37:51.662Z,100821.38
2019-02-24T15:40:21.049Z,100810.55
2019-02-24T15:42:50.428Z,100808.11
2019-02-24T15:45:20.973Z,100795.06
2019-02-24T15:47:50.532Z,100797.76
2019-02-24T15:50:21.390Z,100782.09
2019-02-24T15:52:52.312Z,100784.50
2019-02-24T15:55:22.071Z,100778.27
2019-02-24T15:57:51.518Z,100772.56
2019-02-24T16:00:20.963Z,100781.11
2019-02-24T16:03:01.071Z,100781.67
2019-02-24T16:05:23.964Z,100784.30
2019-02-24T16:07:53.317Z,100778.41
2019-02-24T16:10:22.989Z,100775.97
2019-02-24T16:12:52.568Z,100769.95
2019-02-24T16:15:22.113Z,100772.72
2019-02-24T16:17:56.032Z,100768.63
2019-02-24T16:20:26.541Z,100754.34
2019-02-24T16:22:56.091Z,100757.44
2019-02-24T16:25:25.830Z,100760.91
2019-02-24T16:27:55.530Z,100758.08
2019-02-24T16:30:26.132Z,100756.23
2019-02-24T16:32:55.618Z,100740.24
2019-02-24T16:35:25.520Z,100741.16
2019-02-24T16:37:55.198Z,100728.23
2019-02-24T16:40:25.232Z,100728.69
2019-02-24T16:42:55.327Z,100730.75
2019-02-24T16:45:24.734Z,100722.27
2019-02-24T16:47:55.529Z,100713.23
2019-02-24T16:50:26.805Z,100705.47
2019-02-24T16:52:57.014Z,100704.05
2019-02-24T16:55:27.379Z,100711.45
2019-02-24T16:57:58.914Z,100723.19
2019-02-24T17:00:28.409Z,100711.98
2019-02-24T17:02:58.184Z,100705.02
2019-02-24T17:05:28.564Z,100696.22
2019-02-24T17:07:58.435Z,100692.91
2019-02-24T17:10:28.611Z,100690.17
2019-02-24T17:13:01.704Z,100685.63
2019-02-24T17:15:31.376Z,100688.91
2019-02-24T17:18:00.957Z,100681.19
2019-02-24T17:20:30.461Z,100668.91
2019-02-24T17:23:00.091Z,100669.27
2019-02-24T17:25:30.569Z,100648.88
2019-02-24T17:28:00.412Z,100635.95
2019-02-24T17:30:29.961Z,100633.91
2019-02-24T17:32:59.515Z,100625.67
2019-02-24T17:35:29.034Z,100626.77
2019-02-24T17:37:58.410Z,100625.49
2019-02-24T17:40:27.792Z,100624.52
2019-02-24T17:42:57.571Z,100619.08
2019-02-24T17:45:27.006Z,100620.23
2019-02-24T17:47:56.410Z,100619.31
2019-02-24T17:50:25.981Z,100602.95
2019-02-24T17:52:55.349Z,100615.10
2019-02-24T17:55:24.806Z,100612.48
2019-02-24T17:57:54.396Z,100601.87
2019-02-24T18:00:32.168Z,100602.17
2019-02-24T18:03:02.408Z,100600.13
2019-02-24T18:05:31.941Z,100599.74
2019-02-24T18:08:01.638Z,100582.22
2019-02-24T18:10:31.093Z,100481.86
2019-02-24T18:13:00.558Z,100595.61
2019-02-24T18:15:30.296Z,100593.91
2019-02-24T18:17:59.752Z,100593.61
2019-02-24T18:20:29.236Z,100595.23
2019-02-24T18:22:59.732Z,100578.00
2019-02-24T18:25:29.177Z,100600.13
2019-02-24T18:27:59.266Z,100599.66
2019-02-24T18:30:28.958Z,100600.44
2019-02-24T18:32:58.405Z,100595.27
2019-02-24T18:35:28.985Z,100606.30
2019-02-24T18:37:58.725Z,100616.81
2019-02-24T18:40:28.153Z,100601.44
2019-02-24T18:43:00.622Z,100606.11
2019-02-24T18:45:29.064Z,100623.98
2019-02-24T18:47:58.498Z,100621.13
2019-02-24T18:50:28.179Z,100610.20
2019-02-24T18:52:57.524Z,100627.77
2019-02-24T18:55:26.997Z,100616.81
2019-02-24T18:57:57.057Z,100616.19
2019-02-24T19:00:26.725Z,100616.37
2019-02-24T19:02:56.190Z,100603.01
2019-02-24T19:05:26.513Z,100613.98
2019-02-24T19:07:55.963Z,100609.19
2019-02-24T19:10:25.365Z,100597.92
2019-02-24T19:12:55.147Z,100607.19
2019-02-24T19:15:24.679Z,100590.09
2019-02-24T19:17:54.055Z,100590.86
2019-02-24T19:20:24.602Z,100582.79
2019-02-24T19:22:54.842Z,100591.29
2019-02-24T19:25:24.282Z,100580.71
2019-02-24T19:27:53.707Z,100568.84
2019-02-24T19:30:23.338Z,100577.77
2019-02-24T19:32:52.878Z,100561.70
2019-02-24T19:35:22.337Z,100546.94
2019-02-24T19:37:54.458Z,100559.41
2019-02-24T19:40:23.931Z,100556.86
2019-02-24T19:42:54.018Z,100539.25
2019-02-24T19:45:23.388Z,100536.46
2019-02-24T19:47:52.759Z,100522.88
2019-02-24T19:50:22.563Z,100538.89
2019-02-24T19:52:52.017Z,100544.42
2019-02-24T19:55:23.948Z,100532.96
2019-02-24T19:57:54.201Z,100526.22
2019-02-24T20:00:24.182Z,100514.04
2019-02-24T20:02:53.607Z,100522.69
2019-02-24T20:05:23.284Z,100538.26
2019-02-24T20:07:52.803Z,100533.61
2019-02-24T20:10:22.556Z,100551.73
2019-02-24T20:12:52.226Z,100549.73
2019-02-24T20:15:21.818Z,100510.18
2019-02-24T20:17:51.786Z,100541.80
2019-02-24T20:20:23.553Z,100550.30
2019-02-24T20:22:53.092Z,100545.43
2019-02-24T20:25:22.491Z,100522.16
2019-02-24T20:27:52.390Z,100534.50
2019-02-24T20:30:24.143Z,100524.92
2019-02-24T20:32:56.348Z,100526.16
2019-02-24T20:35:25.961Z,100530.31
2019-02-24T20:37:56.478Z,100503.92
2019-02-24T20:40:26.361Z,100505.09
2019-02-24T20:42:55.753Z,100481.08
2019-02-24T20:45:29.232Z,100507.64
2019-02-24T20:47:58.782Z,100517.57
2019-02-24T20:50:28.271Z,100513.94
2019-02-24T20:52:57.748Z,100519.88
2019-02-24T20:55:28.099Z,100537.78
2019-02-24T20:57:57.554Z,100508.05
2019-02-24T21:00:29.697Z,100510.77
2019-02-24T21:03:02.488Z,100531.52
2019-02-24T21:05:32.565Z,100538.41
2019-02-24T21:08:02.495Z,100523.70
2019-02-24T21:10:31.989Z,100529.98
2019-02-24T21:13:01.502Z,100515.94
2019-02-24T21:15:30.981Z,100521.86
2019-02-24T21:18:00.388Z,100486.67
2019-02-24T21:20:30.339Z,100509.48
2019-02-24T21:23:00.088Z,100497.56
2019-02-24T21:25:29.852Z,100498.43
2019-02-24T21:27:59.223Z,100529.98
2019-02-24T21:30:28.820Z,100443.75
2019-02-24T21:32:58.221Z,100534.03
2019-02-24T21:35:27.894Z,100540.84
2019-02-24T21:37:57.338Z,100544.36
2019-02-24T21:40:26.731Z,100570.41
2019-02-24T21:42:56.143Z,100552.34
2019-02-24T21:45:25.951Z,100572.69
2019-02-24T21:47:55.310Z,100583.73
2019-02-24T21:50:24.794Z,100596.16
2019-02-24T21:52:54.208Z,100579.95
2019-02-24T21:55:23.918Z,100565.44
2019-02-24T21:57:53.353Z,100580.41
2019-02-24T22:00:23.275Z,100571.38
2019-02-24T22:02:53.174Z,100553.94
2019-02-24T22:05:23.201Z,100578.33
2019-02-24T22:07:52.575Z,100551.27
2019-02-24T22:10:22.157Z,100569.60
2019-02-24T22:12:51.907Z,100557.37
2019-02-24T22:15:21.731Z,100568.11
2019-02-24T22:17:51.442Z,100562.81
2019-02-24T22:20:20.955Z,100577.48
2019-02-24T22:22:50.729Z,100582.34
2019-02-24T22:25:20.119Z,100565.05
2019-02-24T22:27:49.920Z,100568.56
2019-02-24T22:30:19.432Z,100562.86
2019-02-24T22:32:48.820Z,100584.73
2019-02-24T22:35:18.393Z,100578.09
2019-02-24T22:37:47.844Z,100584.84
2019-02-24T22:40:17.375Z,100578.44
2019-02-24T22:42:47.792Z,100583.84
2019-02-24T22:45:17.422Z,100579.27
2019-02-24T22:47:46.805Z,100562.53
2019-02-24T22:50:17.084Z,100546.23
2019-02-24T22:52:46.994Z,100547.22
2019-02-24T22:55:16.672Z,100533.53
2019-02-24T22:57:46.065Z,100529.56
2019-02-24T23:00:31.888Z,100519.57
2019-02-24T23:03:01.741Z,100542.67
2019-02-24T23:05:31.323Z,100551.01
2019-02-24T23:08:00.808Z,100595.64
2019-02-24T23:10:30.929Z,100579.24
2019-02-24T23:13:02.245Z,100584.10
2019-02-24T23:15:31.707Z,100611.20
2019-02-24T23:18:01.599Z,100610.23
2019-02-24T23:20:31.146Z,100616.83
2019-02-24T23:23:00.532Z,100590.92
2019-02-24T23:25:30.910Z,100616.41
2019-02-24T23:28:00.272Z,100637.56
2019-02-24T23:30:29.750Z,100637.29
2019-02-24T23:32:59.156Z,100645.23
2019-02-24T23:35:28.963Z,100649.50
2019-02-24T23:37:58.697Z,100654.86
2019-02-24T23:40:28.149Z,100659.98
2019-02-24T23:42:57.494Z,100657.20
2019-02-24T23:45:26.873Z,100668.15
2019-02-24T23:47:56.649Z,100664.36
2019-02-24T23:50:26.488Z,100682.41
2019-02-24T23:52:55.837Z,100678.71
2019-02-24T23:55:27.448Z,100682.33
2019-02-24T23:57:56.860Z,100696.75
